LEMD/MAD METAR and TAF weather

Enter ICAO airport designator
Station Type Date Time Source
LEMD METAR 2020/04/07 16:00 UTC NOAA

LEMD 071600Z 07003KT 020V110 9999 FEW040 SCT050 BKN070 16/14 Q1023 NOSIG


Station Type Date Time Source
LEMD Decoded METAR 2020/04/07 16:00 UTC NOAA

Madrid / Barajas, Spain (LEMD) 40-27N 003-33W 582M
Apr 07, 2020 - 12:00 PM EDT / 2020.04.07 1600 UTC
Wind: from the ENE (070 degrees) at 3 MPH (3 KT) (direction variable):0
Visibility: greater than 7 mile(s):0
Sky conditions: mostly cloudy
Temperature: 60 F (16 C)
Dew Point: 57 F (14 C)
Relative Humidity: 87%
Pressure (altimeter): 30.21 in. Hg (1023 hPa)
ob: LEMD 071600Z 07003KT 020V110 9999 FEW040 SCT050 BKN070 16/14 Q1023 NOSIG
cycle: 16

Station Type Date Time Source
LEMD TAF 2020/04/07 12:27 UTC NOAA

TAF LEMD 071100Z 0712/0818 VRB05KT 9999 FEW013 SCT030 BKN050 TX21/0815Z TN08/0806Z
TEMPO 0712/0717 18008KT PROB40
TEMPO 0712/0721 3000 SHRA SCT030TCU PROB30
TEMPO 0714/0721 VRB15G25KT 3000 TS SHRA FEW030CB
BECMG 0720/0721 07006KT PROB40
TEMPO 0803/0809 3000 BR BKN008 PROB30
TEMPO 0804/0808 0400 BCFG BKN003
BECMG 0810/0811 20008KT

Example: see airport list